• Join FlightAware (Why Join?)
  • Login
  • US Flag 
05:53PM EDT


 

Airport Tracker/Info


-or-


 

Live Flight TrackerFlight Track Log ✈ DLH2745 ✈ 24-Apr-2013 ✈ EDDT / TXL - EDDL / DUS

Flight Track Log - Related Links

Times and Time Zones

All times are in EDT time to prevent confusion due to time zone crossing. See the DLH2745 flight status page for this flight to view local times or setup timezone preferences in your user account.

Time Position Orientation Groundspeed Altitude Reporting Facility
EDT Latitude Longitude Course Direction KTS MPH feet Rate Location/Type
02:38PM 52.4879 12.8509 255° West  Level Estimated
02:39PM 52.4636 12.7056 255° West  Level Estimated
02:40PM 52.4391 12.5604 255° West  Level Estimated
02:41PM 52.4145 12.4154 254° West  Level Estimated
02:42PM 52.3896 12.2706 254° West  Level Estimated
02:43PM 52.3647 12.1260 254° West  Level Estimated
02:44PM 52.3395 11.9815 254° West  Level Estimated
02:45PM 52.3141 11.8371 254° West  Level Estimated
02:46PM 52.2886 11.6930 254° West  Level Estimated
02:47PM 52.2629 11.5490 254° West  Level Estimated
02:48PM 52.2370 11.4052 254° West  Level Estimated
02:49PM 52.2110 11.2615 254° West  Level Estimated
02:50PM 52.1847 11.1180 253° West  Level Estimated
02:51PM 52.1583 10.9747 253° West  Level Estimated
02:52PM 52.1318 10.8316 253° West  Level Estimated
02:53PM 52.1050 10.6886 253° West  Level Estimated
02:54PM 52.0781 10.5458 253° West  Level Estimated
02:55PM 52.0510 10.4032 253° West  Level Estimated
02:56PM 52.0237 10.2607 253° West  Level Estimated
02:57PM 51.9963 10.1184 253° West  Level Estimated
02:58PM 51.9687 9.9763 253° West  Level Estimated
02:59PM 51.9409 9.8344 252° West  Level Estimated
03:00PM 51.9130 9.6926 252° West  Level Estimated
03:01PM 51.8848 9.5511 252° West  Level Estimated
03:02PM 51.8565 9.4096 252° West  Level Estimated
03:03PM 51.8281 9.2684 252° West  Level Estimated
03:04PM 51.7995 9.1274 252° West  Level Estimated
03:05PM 51.7707 8.9865 252° West  Level Estimated
03:06PM 51.7417 8.8458 252° West  Level Estimated
03:07PM 51.7126 8.7053 252° West  Level Estimated
03:08PM 51.6833 8.5650 251° West  Level Estimated
03:09PM 51.6538 8.4249 251° West  Level Estimated
03:10PM 51.6242 8.2849 251° West  Level Estimated
03:11PM 51.5944 8.1452 251° West  Level Estimated
03:12PM 51.5571 7.9716 251° West  Level Estimated
03:13PM 51.5196 7.7984 251° West  Level Estimated
03:14PM 51.4818 7.6255 251° West  Level Estimated
03:15PM 51.4437 7.4528 251° West  Level Estimated
03:16PM 51.4055 7.2804 250° West  Level Estimated
03:17PM 51.3669 7.1083 250° West  Level Estimated
03:18PM 51.3281 6.9366 250° West  Level Estimated
03:19PM 51.2895 6.7668 250° West  Level Estimated
03:20PM 51.2895 6.7668 314° West  Level Estimated
03:21PM 51.2895 6.7668 46° Northeast  Level Estimated
03:22PM 51.2895 6.7668 314° West  Level Estimated
03:23PM 51.2895 6.7668 46° Northeast  Level Estimated
03:24PM 51.2895 6.7668 314° West  Level Estimated
03:25PM 51.2895 6.7668 46° Northeast  Level Estimated
03:26PM 51.2895 6.7668 314° West  Level Estimated
03:27PM 51.2895 6.7668 46° Northeast  Level Estimated
03:28PM 51.2895 6.7668 314° West  Level Estimated